sensor_id;sensor_type;location;lat;lon;timestamp;temperature;humidity
66328;DHT22;53133;52.862;6.602;2023-07-13T00:02:21;17.40;99.90
66328;DHT22;53133;52.862;6.602;2023-07-13T00:04:47;17.30;99.90
66328;DHT22;53133;52.862;6.602;2023-07-13T00:07:13;17.30;99.90
66328;DHT22;53133;52.862;6.602;2023-07-13T00:09:40;17.30;99.90
66328;DHT22;53133;52.862;6.602;2023-07-13T00:12:28;17.30;99.90
66328;DHT22;53133;52.862;6.602;2023-07-13T00:14:57;17.30;99.90
66328;DHT22;53133;52.862;6.602;2023-07-13T00:17:23;17.30;99.90
66328;DHT22;53133;52.862;6.602;2023-07-13T00:19:49;17.30;99.90
66328;DHT22;53133;52.862;6.602;2023-07-13T00:22:15;17.30;99.90
66328;DHT22;53133;52.862;6.602;2023-07-13T00:24:41;17.30;99.90
66328;DHT22;53133;52.862;6.602;2023-07-13T00:27:09;17.40;99.90
66328;DHT22;53133;52.862;6.602;2023-07-13T00:29:35;17.40;99.90
66328;DHT22;53133;52.862;6.602;2023-07-13T00:32:03;17.30;99.90
66328;DHT22;53133;52.862;6.602;2023-07-13T00:34:29;17.40;99.90
66328;DHT22;53133;52.862;6.602;2023-07-13T00:36:55;17.40;99.90
66328;DHT22;53133;52.862;6.602;2023-07-13T00:39:20;17.30;99.90
66328;DHT22;53133;52.862;6.602;2023-07-13T00:41:46;17.30;99.90
66328;DHT22;53133;52.862;6.602;2023-07-13T00:44:17;17.30;99.90
66328;DHT22;53133;52.862;6.602;2023-07-13T00:46:43;17.30;99.90
66328;DHT22;53133;52.862;6.602;2023-07-13T00:49:12;17.30;99.90
66328;DHT22;53133;52.862;6.602;2023-07-13T00:51:45;17.30;99.90
66328;DHT22;53133;52.862;6.602;2023-07-13T00:54:16;17.30;99.90
66328;DHT22;53133;52.862;6.602;2023-07-13T00:56:45;17.30;99.90
66328;DHT22;53133;52.862;6.602;2023-07-13T00:59:12;17.30;99.90
66328;DHT22;53133;52.862;6.602;2023-07-13T01:01:38;17.30;99.90
66328;DHT22;53133;52.862;6.602;2023-07-13T01:04:05;17.30;99.90
66328;DHT22;53133;52.862;6.602;2023-07-13T01:06:35;17.20;99.90
66328;DHT22;53133;52.862;6.602;2023-07-13T01:09:01;17.30;99.90
66328;DHT22;53133;52.862;6.602;2023-07-13T01:11:27;17.30;99.90
66328;DHT22;53133;52.862;6.602;2023-07-13T01:13:53;17.20;99.90
66328;DHT22;53133;52.862;6.602;2023-07-13T01:16:28;17.20;99.90
66328;DHT22;53133;52.862;6.602;2023-07-13T01:18:55;17.20;99.90
66328;DHT22;53133;52.862;6.602;2023-07-13T01:21:25;17.20;99.90
66328;DHT22;53133;52.862;6.602;2023-07-13T01:23:52;17.20;99.90
66328;DHT22;53133;52.862;6.602;2023-07-13T01:26:17;17.20;99.90
66328;DHT22;53133;52.862;6.602;2023-07-13T01:28:43;17.20;99.90
66328;DHT22;53133;52.862;6.602;2023-07-13T01:31:09;17.20;99.90
66328;DHT22;53133;52.862;6.602;2023-07-13T01:33:38;17.20;99.90
66328;DHT22;53133;52.862;6.602;2023-07-13T01:36:08;17.20;99.90
66328;DHT22;53133;52.862;6.602;2023-07-13T01:38:35;17.20;99.90
66328;DHT22;53133;52.862;6.602;2023-07-13T01:41:01;17.20;99.90
66328;DHT22;53133;52.862;6.602;2023-07-13T01:43:27;17.30;99.90
66328;DHT22;53133;52.862;6.602;2023-07-13T01:45:53;17.20;99.90
66328;DHT22;53133;52.862;6.602;2023-07-13T01:48:18;17.30;99.90
66328;DHT22;53133;52.862;6.602;2023-07-13T01:50:46;17.30;99.90
66328;DHT22;53133;52.862;6.602;2023-07-13T01:53:12;17.20;99.90
66328;DHT22;53133;52.862;6.602;2023-07-13T01:55:38;17.30;99.90
66328;DHT22;53133;52.862;6.602;2023-07-13T01:58:05;17.20;99.90
66328;DHT22;53133;52.862;6.602;2023-07-13T02:00:31;17.20;99.90
66328;DHT22;53133;52.862;6.602;2023-07-13T02:02:57;17.20;99.90
66328;DHT22;53133;52.862;6.602;2023-07-13T02:05:22;17.20;99.90
66328;DHT22;53133;52.862;6.602;2023-07-13T02:07:48;17.20;99.90
66328;DHT22;53133;52.862;6.602;2023-07-13T02:10:14;17.20;99.90
66328;DHT22;53133;52.862;6.602;2023-07-13T02:12:41;17.20;99.90
66328;DHT22;53133;52.862;6.602;2023-07-13T02:15:08;17.10;99.90
66328;DHT22;53133;52.862;6.602;2023-07-13T02:17:35;17.10;99.90
66328;DHT22;53133;52.862;6.602;2023-07-13T02:20:01;17.10;99.90
66328;DHT22;53133;52.862;6.602;2023-07-13T02:22:27;17.10;99.90
66328;DHT22;53133;52.862;6.602;2023-07-13T02:24:53;17.10;99.90
66328;DHT22;53133;52.862;6.602;2023-07-13T02:27:19;17.00;99.90
66328;DHT22;53133;52.862;6.602;2023-07-13T02:29:45;17.00;99.90
66328;DHT22;53133;52.862;6.602;2023-07-13T02:32:11;17.00;99.90
66328;DHT22;53133;52.862;6.602;2023-07-13T02:34:36;17.00;99.90
66328;DHT22;53133;52.862;6.602;2023-07-13T02:37:03;16.90;99.90
66328;DHT22;53133;52.862;6.602;2023-07-13T02:39:28;16.90;99.90
66328;DHT22;53133;52.862;6.602;2023-07-13T02:41:54;17.00;99.90
66328;DHT22;53133;52.862;6.602;2023-07-13T02:44:20;16.90;99.90
66328;DHT22;53133;52.862;6.602;2023-07-13T02:46:45;16.90;99.90
66328;DHT22;53133;52.862;6.602;2023-07-13T02:49:11;16.80;99.90
66328;DHT22;53133;52.862;6.602;2023-07-13T02:51:37;16.80;99.90
66328;DHT22;53133;52.862;6.602;2023-07-13T02:54:03;16.80;99.90
66328;DHT22;53133;52.862;6.602;2023-07-13T02:56:30;16.80;99.90
66328;DHT22;53133;52.862;6.602;2023-07-13T02:58:56;16.70;99.90
66328;DHT22;53133;52.862;6.602;2023-07-13T03:01:23;16.70;99.90
66328;DHT22;53133;52.862;6.602;2023-07-13T03:03:50;16.70;99.90
66328;DHT22;53133;52.862;6.602;2023-07-13T03:06:16;16.70;99.90
66328;DHT22;53133;52.862;6.602;2023-07-13T03:08:42;16.70;99.90
66328;DHT22;53133;52.862;6.602;2023-07-13T03:11:14;16.70;99.90
66328;DHT22;53133;52.862;6.602;2023-07-13T03:13:41;16.70;99.90
66328;DHT22;53133;52.862;6.602;2023-07-13T03:16:08;16.60;99.90
66328;DHT22;53133;52.862;6.602;2023-07-13T03:18:35;16.60;99.90
66328;DHT22;53133;52.862;6.602;2023-07-13T03:21:01;16.60;99.90
66328;DHT22;53133;52.862;6.602;2023-07-13T03:23:27;16.60;99.90
66328;DHT22;53133;52.862;6.602;2023-07-13T03:26:20;16.60;99.90
66328;DHT22;53133;52.862;6.602;2023-07-13T03:28:46;16.60;99.90
66328;DHT22;53133;52.862;6.602;2023-07-13T03:31:20;16.60;99.90
66328;DHT22;53133;52.862;6.602;2023-07-13T03:33:47;16.60;99.90
66328;DHT22;53133;52.862;6.602;2023-07-13T03:36:17;16.60;99.90
66328;DHT22;53133;52.862;6.602;2023-07-13T03:38:48;16.60;99.90
66328;DHT22;53133;52.862;6.602;2023-07-13T03:41:15;16.50;99.90
66328;DHT22;53133;52.862;6.602;2023-07-13T03:43:41;16.60;99.90
66328;DHT22;53133;52.862;6.602;2023-07-13T03:46:06;16.60;99.90
66328;DHT22;53133;52.862;6.602;2023-07-13T03:48:32;16.60;99.90
66328;DHT22;53133;52.862;6.602;2023-07-13T03:50:58;16.60;99.90
66328;DHT22;53133;52.862;6.602;2023-07-13T03:53:23;16.60;99.90
66328;DHT22;53133;52.862;6.602;2023-07-13T03:55:49;16.70;99.90
66328;DHT22;53133;52.862;6.602;2023-07-13T04:00:54;16.70;99.90
66328;DHT22;53133;52.862;6.602;2023-07-13T04:03:20;16.70;99.90
66328;DHT22;53133;52.862;6.602;2023-07-13T04:05:46;16.70;99.90
66328;DHT22;53133;52.862;6.602;2023-07-13T04:08:12;16.70;99.90
66328;DHT22;53133;52.862;6.602;2023-07-13T04:10:38;16.70;99.90
66328;DHT22;53133;52.862;6.602;2023-07-13T04:13:04;16.70;99.90
66328;DHT22;53133;52.862;6.602;2023-07-13T04:15:31;16.70;99.90
66328;DHT22;53133;52.862;6.602;2023-07-13T04:17:58;16.70;99.90
66328;DHT22;53133;52.862;6.602;2023-07-13T04:20:25;16.70;99.90
66328;DHT22;53133;52.862;6.602;2023-07-13T04:22:51;16.70;99.90
66328;DHT22;53133;52.862;6.602;2023-07-13T04:25:19;16.70;99.90
66328;DHT22;53133;52.862;6.602;2023-07-13T04:27:44;16.70;99.90
66328;DHT22;53133;52.862;6.602;2023-07-13T04:30:10;16.60;99.90
66328;DHT22;53133;52.862;6.602;2023-07-13T04:32:36;16.60;99.90
66328;DHT22;53133;52.862;6.602;2023-07-13T04:35:01;16.60;99.90
66328;DHT22;53133;52.862;6.602;2023-07-13T04:37:27;16.70;99.90
66328;DHT22;53133;52.862;6.602;2023-07-13T04:39:52;16.70;99.90
66328;DHT22;53133;52.862;6.602;2023-07-13T04:42:18;16.70;99.90
66328;DHT22;53133;52.862;6.602;2023-07-13T04:44:48;16.70;99.90
66328;DHT22;53133;52.862;6.602;2023-07-13T04:47:14;16.70;99.90
66328;DHT22;53133;52.862;6.602;2023-07-13T04:49:40;16.70;99.90
66328;DHT22;53133;52.862;6.602;2023-07-13T04:52:06;16.70;99.90
66328;DHT22;53133;52.862;6.602;2023-07-13T04:54:33;16.70;99.90
66328;DHT22;53133;52.862;6.602;2023-07-13T04:56:59;16.70;99.90
66328;DHT22;53133;52.862;6.602;2023-07-13T04:59:25;16.70;99.90
66328;DHT22;53133;52.862;6.602;2023-07-13T05:01:51;16.70;99.90
66328;DHT22;53133;52.862;6.602;2023-07-13T05:04:17;16.70;99.90
66328;DHT22;53133;52.862;6.602;2023-07-13T05:06:42;16.70;99.90
66328;DHT22;53133;52.862;6.602;2023-07-13T05:09:08;16.70;99.90
66328;DHT22;53133;52.862;6.602;2023-07-13T05:11:34;16.70;99.90
66328;DHT22;53133;52.862;6.602;2023-07-13T05:14:00;16.70;99.90
66328;DHT22;53133;52.862;6.602;2023-07-13T05:16:27;16.70;99.90
66328;DHT22;53133;52.862;6.602;2023-07-13T05:18:53;16.70;99.90
66328;DHT22;53133;52.862;6.602;2023-07-13T05:21:19;16.70;99.90
66328;DHT22;53133;52.862;6.602;2023-07-13T05:23:46;16.80;99.90
66328;DHT22;53133;52.862;6.602;2023-07-13T05:26:12;16.80;99.90
66328;DHT22;53133;52.862;6.602;2023-07-13T05:28:38;16.80;99.90
66328;DHT22;53133;52.862;6.602;2023-07-13T05:31:04;16.80;99.90
66328;DHT22;53133;52.862;6.602;2023-07-13T05:33:30;16.90;99.90
66328;DHT22;53133;52.862;6.602;2023-07-13T05:35:56;16.90;99.90
66328;DHT22;53133;52.862;6.602;2023-07-13T05:38:22;16.90;99.90
66328;DHT22;53133;52.862;6.602;2023-07-13T05:40:48;16.90;99.90
66328;DHT22;53133;52.862;6.602;2023-07-13T05:43:14;17.00;99.90
66328;DHT22;53133;52.862;6.602;2023-07-13T05:45:40;16.90;99.90
66328;DHT22;53133;52.862;6.602;2023-07-13T05:48:06;17.00;99.90
66328;DHT22;53133;52.862;6.602;2023-07-13T05:50:31;17.00;99.90
66328;DHT22;53133;52.862;6.602;2023-07-13T05:52:57;17.00;99.90
66328;DHT22;53133;52.862;6.602;2023-07-13T05:55:23;17.10;99.90
66328;DHT22;53133;52.862;6.602;2023-07-13T05:57:49;17.10;99.90
66328;DHT22;53133;52.862;6.602;2023-07-13T06:00:15;17.10;99.90
66328;DHT22;53133;52.862;6.602;2023-07-13T06:02:41;17.10;99.90
66328;DHT22;53133;52.862;6.602;2023-07-13T06:05:07;17.20;99.90
66328;DHT22;53133;52.862;6.602;2023-07-13T06:07:33;17.20;99.90
66328;DHT22;53133;52.862;6.602;2023-07-13T06:09:59;17.20;99.90
66328;DHT22;53133;52.862;6.602;2023-07-13T06:12:25;17.30;99.90
66328;DHT22;53133;52.862;6.602;2023-07-13T06:14:51;17.30;99.90
66328;DHT22;53133;52.862;6.602;2023-07-13T06:17:16;17.30;99.90
66328;DHT22;53133;52.862;6.602;2023-07-13T06:19:42;17.40;99.90
66328;DHT22;53133;52.862;6.602;2023-07-13T06:22:08;17.40;99.90
66328;DHT22;53133;52.862;6.602;2023-07-13T06:24:33;17.40;99.90
66328;DHT22;53133;52.862;6.602;2023-07-13T06:26:59;17.50;99.90
66328;DHT22;53133;52.862;6.602;2023-07-13T06:29:25;17.50;99.90
66328;DHT22;53133;52.862;6.602;2023-07-13T06:31:50;17.60;99.90
66328;DHT22;53133;52.862;6.602;2023-07-13T06:34:16;17.60;99.90
66328;DHT22;53133;52.862;6.602;2023-07-13T06:36:42;17.70;99.90
66328;DHT22;53133;52.862;6.602;2023-07-13T06:39:07;17.70;99.90
66328;DHT22;53133;52.862;6.602;2023-07-13T06:41:34;17.80;99.90
66328;DHT22;53133;52.862;6.602;2023-07-13T06:43:59;17.80;99.90
66328;DHT22;53133;52.862;6.602;2023-07-13T06:46:25;17.80;99.90
66328;DHT22;53133;52.862;6.602;2023-07-13T06:48:53;17.90;99.90
66328;DHT22;53133;52.862;6.602;2023-07-13T06:51:19;17.90;99.90
66328;DHT22;53133;52.862;6.602;2023-07-13T06:53:44;18.00;99.90
66328;DHT22;53133;52.862;6.602;2023-07-13T06:56:10;18.00;99.90
66328;DHT22;53133;52.862;6.602;2023-07-13T06:58:36;18.10;99.90
66328;DHT22;53133;52.862;6.602;2023-07-13T07:01:03;18.20;99.90
66328;DHT22;53133;52.862;6.602;2023-07-13T07:03:29;18.20;99.90
66328;DHT22;53133;52.862;6.602;2023-07-13T07:06:01;18.30;99.90
66328;DHT22;53133;52.862;6.602;2023-07-13T07:08:27;18.40;99.90
66328;DHT22;53133;52.862;6.602;2023-07-13T07:10:53;18.40;99.90
66328;DHT22;53133;52.862;6.602;2023-07-13T07:13:19;18.50;99.90
66328;DHT22;53133;52.862;6.602;2023-07-13T07:15:45;18.50;99.90
66328;DHT22;53133;52.862;6.602;2023-07-13T07:18:11;18.60;99.90
66328;DHT22;53133;52.862;6.602;2023-07-13T07:20:37;18.60;99.90
66328;DHT22;53133;52.862;6.602;2023-07-13T07:23:03;18.70;99.90
66328;DHT22;53133;52.862;6.602;2023-07-13T07:25:28;18.70;99.90
66328;DHT22;53133;52.862;6.602;2023-07-13T07:27:57;18.80;99.90
66328;DHT22;53133;52.862;6.602;2023-07-13T07:30:23;18.80;99.90
66328;DHT22;53133;52.862;6.602;2023-07-13T07:32:49;18.80;99.90
66328;DHT22;53133;52.862;6.602;2023-07-13T07:35:14;18.80;99.90
66328;DHT22;53133;52.862;6.602;2023-07-13T07:37:40;18.80;99.90
66328;DHT22;53133;52.862;6.602;2023-07-13T07:40:07;18.80;99.90
66328;DHT22;53133;52.862;6.602;2023-07-13T07:42:33;18.80;99.90
66328;DHT22;53133;52.862;6.602;2023-07-13T07:44:59;18.80;99.90
66328;DHT22;53133;52.862;6.602;2023-07-13T07:47:26;18.80;99.90
66328;DHT22;53133;52.862;6.602;2023-07-13T07:49:52;18.80;99.90
66328;DHT22;53133;52.862;6.602;2023-07-13T07:52:18;18.90;99.90
66328;DHT22;53133;52.862;6.602;2023-07-13T07:54:44;18.90;99.90
66328;DHT22;53133;52.862;6.602;2023-07-13T07:57:09;18.90;99.90
66328;DHT22;53133;52.862;6.602;2023-07-13T07:59:36;18.90;99.90
66328;DHT22;53133;52.862;6.602;2023-07-13T08:02:02;19.00;99.90
66328;DHT22;53133;52.862;6.602;2023-07-13T08:04:28;19.00;99.90
66328;DHT22;53133;52.862;6.602;2023-07-13T08:06:54;19.00;99.90
66328;DHT22;53133;52.862;6.602;2023-07-13T08:09:21;19.00;99.90
66328;DHT22;53133;52.862;6.602;2023-07-13T08:11:47;19.10;99.90
66328;DHT22;53133;52.862;6.602;2023-07-13T08:14:13;19.20;99.90
66328;DHT22;53133;52.862;6.602;2023-07-13T08:16:39;19.20;99.90
66328;DHT22;53133;52.862;6.602;2023-07-13T08:19:05;19.20;99.90
66328;DHT22;53133;52.862;6.602;2023-07-13T08:21:31;19.20;99.90
66328;DHT22;53133;52.862;6.602;2023-07-13T08:23:57;19.20;99.90
66328;DHT22;53133;52.862;6.602;2023-07-13T08:26:23;19.20;99.90
66328;DHT22;53133;52.862;6.602;2023-07-13T08:28:49;19.20;99.90
66328;DHT22;53133;52.862;6.602;2023-07-13T08:31:14;19.20;99.90
66328;DHT22;53133;52.862;6.602;2023-07-13T08:33:40;19.10;99.90
66328;DHT22;53133;52.862;6.602;2023-07-13T08:36:06;19.00;99.90
66328;DHT22;53133;52.862;6.602;2023-07-13T08:38:32;18.90;99.90
66328;DHT22;53133;52.862;6.602;2023-07-13T08:40:58;18.80;99.90
66328;DHT22;53133;52.862;6.602;2023-07-13T08:43:36;18.70;99.90
66328;DHT22;53133;52.862;6.602;2023-07-13T08:46:17;18.60;99.90
66328;DHT22;53133;52.862;6.602;2023-07-13T08:48:59;18.40;99.90
66328;DHT22;53133;52.862;6.602;2023-07-13T08:51:34;18.20;99.90
66328;DHT22;53133;52.862;6.602;2023-07-13T08:54:08;18.10;99.90
66328;DHT22;53133;52.862;6.602;2023-07-13T08:56:36;18.00;99.90
66328;DHT22;53133;52.862;6.602;2023-07-13T08:59:14;18.00;99.90
66328;DHT22;53133;52.862;6.602;2023-07-13T09:04:45;18.00;99.90
66328;DHT22;53133;52.862;6.602;2023-07-13T09:10:15;17.90;99.90
66328;DHT22;53133;52.862;6.602;2023-07-13T09:15:31;17.80;99.90
66328;DHT22;53133;52.862;6.602;2023-07-13T09:18:11;17.80;99.90
66328;DHT22;53133;52.862;6.602;2023-07-13T09:20:46;17.80;99.90
66328;DHT22;53133;52.862;6.602;2023-07-13T09:23:20;17.70;99.90
66328;DHT22;53133;52.862;6.602;2023-07-13T09:25:50;17.70;99.90
66328;DHT22;53133;52.862;6.602;2023-07-13T09:28:28;17.60;99.90
66328;DHT22;53133;52.862;6.602;2023-07-13T09:31:04;17.60;99.90
66328;DHT22;53133;52.862;6.602;2023-07-13T09:33:31;17.50;99.90
66328;DHT22;53133;52.862;6.602;2023-07-13T09:35:58;17.30;99.90
66328;DHT22;53133;52.862;6.602;2023-07-13T09:38:29;17.20;99.90
66328;DHT22;53133;52.862;6.602;2023-07-13T09:41:28;17.10;99.90
66328;DHT22;53133;52.862;6.602;2023-07-13T09:44:16;16.90;99.90
66328;DHT22;53133;52.862;6.602;2023-07-13T09:46:53;16.90;99.90
66328;DHT22;53133;52.862;6.602;2023-07-13T09:49:26;16.80;99.90
66328;DHT22;53133;52.862;6.602;2023-07-13T09:52:05;16.90;99.90
66328;DHT22;53133;52.862;6.602;2023-07-13T09:54:34;16.90;99.90
66328;DHT22;53133;52.862;6.602;2023-07-13T09:57:02;16.90;99.90
66328;DHT22;53133;52.862;6.602;2023-07-13T09:59:35;16.90;99.90
66328;DHT22;53133;52.862;6.602;2023-07-13T10:02:02;17.00;99.90
66328;DHT22;53133;52.862;6.602;2023-07-13T10:04:33;17.00;99.90
66328;DHT22;53133;52.862;6.602;2023-07-13T10:07:12;17.10;99.90
66328;DHT22;53133;52.862;6.602;2023-07-13T10:09:41;17.10;99.90
66328;DHT22;53133;52.862;6.602;2023-07-13T10:12:16;17.10;99.90
66328;DHT22;53133;52.862;6.602;2023-07-13T10:14:43;17.20;99.90
66328;DHT22;53133;52.862;6.602;2023-07-13T10:17:13;17.30;99.90
66328;DHT22;53133;52.862;6.602;2023-07-13T10:19:41;17.40;99.90
66328;DHT22;53133;52.862;6.602;2023-07-13T10:22:45;17.40;99.90
66328;DHT22;53133;52.862;6.602;2023-07-13T10:25:19;17.50;99.90
66328;DHT22;53133;52.862;6.602;2023-07-13T10:27:46;17.60;99.90
66328;DHT22;53133;52.862;6.602;2023-07-13T10:32:45;17.80;99.90
66328;DHT22;53133;52.862;6.602;2023-07-13T10:35:14;17.90;99.90
66328;DHT22;53133;52.862;6.602;2023-07-13T10:38:02;17.90;99.90
66328;DHT22;53133;52.862;6.602;2023-07-13T10:40:42;18.10;99.90
66328;DHT22;53133;52.862;6.602;2023-07-13T10:43:25;18.20;99.90
66328;DHT22;53133;52.862;6.602;2023-07-13T10:45:53;18.20;99.90
66328;DHT22;53133;52.862;6.602;2023-07-13T10:48:21;18.30;99.90
66328;DHT22;53133;52.862;6.602;2023-07-13T10:50:51;18.40;99.90
66328;DHT22;53133;52.862;6.602;2023-07-13T10:59:28;18.70;99.90
66328;DHT22;53133;52.862;6.602;2023-07-13T11:01:54;18.80;99.90
66328;DHT22;53133;52.862;6.602;2023-07-13T11:04:22;18.90;99.90
66328;DHT22;53133;52.862;6.602;2023-07-13T11:07:06;18.90;99.90
66328;DHT22;53133;52.862;6.602;2023-07-13T11:09:38;19.00;99.90
66328;DHT22;53133;52.862;6.602;2023-07-13T11:12:27;19.10;99.90
66328;DHT22;53133;52.862;6.602;2023-07-13T11:17:33;19.10;99.90
66328;DHT22;53133;52.862;6.602;2023-07-13T11:25:27;19.00;99.90
66328;DHT22;53133;52.862;6.602;2023-07-13T11:33:24;18.80;99.90
66328;DHT22;53133;52.862;6.602;2023-07-13T11:36:03;18.70;99.90
66328;DHT22;53133;52.862;6.602;2023-07-13T11:42:02;18.60;99.90
66328;DHT22;53133;52.862;6.602;2023-07-13T11:44:30;18.60;99.90
66328;DHT22;53133;52.862;6.602;2023-07-13T11:46:58;18.60;99.90
66328;DHT22;53133;52.862;6.602;2023-07-13T11:49:30;18.70;99.90
66328;DHT22;53133;52.862;6.602;2023-07-13T11:51:58;18.70;99.90
66328;DHT22;53133;52.862;6.602;2023-07-13T11:54:30;18.80;99.90
66328;DHT22;53133;52.862;6.602;2023-07-13T11:57:03;18.90;99.90
66328;DHT22;53133;52.862;6.602;2023-07-13T11:59:32;18.90;99.90
66328;DHT22;53133;52.862;6.602;2023-07-13T12:01:59;18.90;99.90
66328;DHT22;53133;52.862;6.602;2023-07-13T12:04:32;18.90;99.90
66328;DHT22;53133;52.862;6.602;2023-07-13T12:07:15;19.00;99.90
66328;DHT22;53133;52.862;6.602;2023-07-13T12:09:42;19.00;99.90
66328;DHT22;53133;52.862;6.602;2023-07-13T12:12:17;19.10;99.90
66328;DHT22;53133;52.862;6.602;2023-07-13T12:14:43;19.20;99.90
66328;DHT22;53133;52.862;6.602;2023-07-13T12:17:29;19.30;99.90
66328;DHT22;53133;52.862;6.602;2023-07-13T12:19:55;19.40;99.90
66328;DHT22;53133;52.862;6.602;2023-07-13T12:22:21;19.50;99.90
66328;DHT22;53133;52.862;6.602;2023-07-13T12:24:48;19.60;99.90
66328;DHT22;53133;52.862;6.602;2023-07-13T12:27:23;19.70;99.90
66328;DHT22;53133;52.862;6.602;2023-07-13T12:29:59;19.80;99.90
66328;DHT22;53133;52.862;6.602;2023-07-13T12:32:25;19.90;99.90
66328;DHT22;53133;52.862;6.602;2023-07-13T12:34:53;20.00;99.90
66328;DHT22;53133;52.862;6.602;2023-07-13T12:37:19;20.10;99.90
66328;DHT22;53133;52.862;6.602;2023-07-13T12:39:47;20.20;99.90
66328;DHT22;53133;52.862;6.602;2023-07-13T12:42:18;20.30;99.90
66328;DHT22;53133;52.862;6.602;2023-07-13T12:44:46;20.30;99.90
66328;DHT22;53133;52.862;6.602;2023-07-13T12:47:13;20.40;99.90
66328;DHT22;53133;52.862;6.602;2023-07-13T12:49:52;20.40;99.90
66328;DHT22;53133;52.862;6.602;2023-07-13T12:52:28;20.40;99.90
66328;DHT22;53133;52.862;6.602;2023-07-13T12:54:58;20.50;99.90
66328;DHT22;53133;52.862;6.602;2023-07-13T12:57:26;20.70;99.90
66328;DHT22;53133;52.862;6.602;2023-07-13T12:59:53;20.70;99.90
66328;DHT22;53133;52.862;6.602;2023-07-13T13:02:33;20.80;99.90
66328;DHT22;53133;52.862;6.602;2023-07-13T13:05:01;20.90;99.90
66328;DHT22;53133;52.862;6.602;2023-07-13T13:07:29;20.90;99.90
66328;DHT22;53133;52.862;6.602;2023-07-13T13:09:55;20.90;99.90
66328;DHT22;53133;52.862;6.602;2023-07-13T13:12:22;21.00;99.90
66328;DHT22;53133;52.862;6.602;2023-07-13T13:14:51;21.00;99.90
66328;DHT22;53133;52.862;6.602;2023-07-13T13:17:23;21.00;99.90
66328;DHT22;53133;52.862;6.602;2023-07-13T13:19:51;21.00;99.90
66328;DHT22;53133;52.862;6.602;2023-07-13T13:22:20;21.00;99.90
66328;DHT22;53133;52.862;6.602;2023-07-13T13:24:46;21.00;99.90
66328;DHT22;53133;52.862;6.602;2023-07-13T13:27:21;21.00;99.90
66328;DHT22;53133;52.862;6.602;2023-07-13T13:29:49;21.00;99.90
66328;DHT22;53133;52.862;6.602;2023-07-13T13:32:17;20.90;99.90
66328;DHT22;53133;52.862;6.602;2023-07-13T13:34:44;20.90;99.90
66328;DHT22;53133;52.862;6.602;2023-07-13T13:37:20;20.80;99.90
66328;DHT22;53133;52.862;6.602;2023-07-13T13:39:47;20.70;99.90
66328;DHT22;53133;52.862;6.602;2023-07-13T13:42:13;20.70;99.90
66328;DHT22;53133;52.862;6.602;2023-07-13T13:44:39;20.60;99.90
66328;DHT22;53133;52.862;6.602;2023-07-13T13:47:23;20.60;99.90
66328;DHT22;53133;52.862;6.602;2023-07-13T13:49:53;20.50;99.90
66328;DHT22;53133;52.862;6.602;2023-07-13T13:52:19;20.40;99.90
66328;DHT22;53133;52.862;6.602;2023-07-13T13:54:44;20.40;99.90
66328;DHT22;53133;52.862;6.602;2023-07-13T13:57:10;20.40;99.90
66328;DHT22;53133;52.862;6.602;2023-07-13T13:59:38;20.40;99.90
66328;DHT22;53133;52.862;6.602;2023-07-13T14:02:21;20.50;99.90
66328;DHT22;53133;52.862;6.602;2023-07-13T14:04:53;20.40;99.90
66328;DHT22;53133;52.862;6.602;2023-07-13T14:07:19;20.40;99.90
66328;DHT22;53133;52.862;6.602;2023-07-13T14:09:45;20.40;99.90
66328;DHT22;53133;52.862;6.602;2023-07-13T14:12:11;20.40;99.90
66328;DHT22;53133;52.862;6.602;2023-07-13T14:14:37;20.50;99.90
66328;DHT22;53133;52.862;6.602;2023-07-13T14:17:04;20.50;99.90
66328;DHT22;53133;52.862;6.602;2023-07-13T14:19:30;20.60;99.90
66328;DHT22;53133;52.862;6.602;2023-07-13T14:21:55;20.50;99.90
66328;DHT22;53133;52.862;6.602;2023-07-13T14:24:21;20.50;99.90
66328;DHT22;53133;52.862;6.602;2023-07-13T14:26:47;20.60;99.90
66328;DHT22;53133;52.862;6.602;2023-07-13T14:29:16;20.60;99.90
66328;DHT22;53133;52.862;6.602;2023-07-13T14:31:43;20.60;99.90
66328;DHT22;53133;52.862;6.602;2023-07-13T14:34:12;20.70;99.90
66328;DHT22;53133;52.862;6.602;2023-07-13T14:36:44;20.70;99.90
66328;DHT22;53133;52.862;6.602;2023-07-13T14:39:22;20.70;99.90
66328;DHT22;53133;52.862;6.602;2023-07-13T14:41:53;20.70;99.90
66328;DHT22;53133;52.862;6.602;2023-07-13T14:44:22;20.70;99.90
66328;DHT22;53133;52.862;6.602;2023-07-13T14:46:49;20.80;99.90
66328;DHT22;53133;52.862;6.602;2023-07-13T14:52:02;20.80;99.90
66328;DHT22;53133;52.862;6.602;2023-07-13T14:54:29;20.90;99.90
66328;DHT22;53133;52.862;6.602;2023-07-13T14:56:55;20.90;99.90
66328;DHT22;53133;52.862;6.602;2023-07-13T14:59:20;20.90;99.90
66328;DHT22;53133;52.862;6.602;2023-07-13T15:01:48;21.00;99.90
66328;DHT22;53133;52.862;6.602;2023-07-13T15:04:14;21.00;99.90
66328;DHT22;53133;52.862;6.602;2023-07-13T15:07:00;21.00;99.90
66328;DHT22;53133;52.862;6.602;2023-07-13T15:09:27;21.10;99.90
66328;DHT22;53133;52.862;6.602;2023-07-13T15:11:55;21.20;99.90
66328;DHT22;53133;52.862;6.602;2023-07-13T15:14:22;21.20;99.90
66328;DHT22;53133;52.862;6.602;2023-07-13T15:16:49;21.30;99.90
66328;DHT22;53133;52.862;6.602;2023-07-13T15:19:18;21.30;99.90
66328;DHT22;53133;52.862;6.602;2023-07-13T15:21:44;21.40;99.90
66328;DHT22;53133;52.862;6.602;2023-07-13T15:24:10;21.40;99.90
66328;DHT22;53133;52.862;6.602;2023-07-13T15:26:36;21.40;99.90
66328;DHT22;53133;52.862;6.602;2023-07-13T15:29:03;21.40;99.90
66328;DHT22;53133;52.862;6.602;2023-07-13T15:31:29;21.40;99.90
66328;DHT22;53133;52.862;6.602;2023-07-13T15:33:58;21.40;99.90
66328;DHT22;53133;52.862;6.602;2023-07-13T15:36:25;21.40;99.90
66328;DHT22;53133;52.862;6.602;2023-07-13T15:38:52;21.40;99.90
66328;DHT22;53133;52.862;6.602;2023-07-13T15:41:27;21.40;99.90
66328;DHT22;53133;52.862;6.602;2023-07-13T15:43:55;21.40;99.90
66328;DHT22;53133;52.862;6.602;2023-07-13T15:46:24;21.30;99.90
66328;DHT22;53133;52.862;6.602;2023-07-13T15:48:52;21.30;99.90
66328;DHT22;53133;52.862;6.602;2023-07-13T15:51:26;21.20;99.90
66328;DHT22;53133;52.862;6.602;2023-07-13T15:53:54;21.30;99.90
66328;DHT22;53133;52.862;6.602;2023-07-13T15:56:24;21.20;99.90
66328;DHT22;53133;52.862;6.602;2023-07-13T15:58:52;21.20;99.90
66328;DHT22;53133;52.862;6.602;2023-07-13T16:01:18;21.20;99.90
66328;DHT22;53133;52.862;6.602;2023-07-13T16:03:47;21.20;99.90
66328;DHT22;53133;52.862;6.602;2023-07-13T16:06:28;21.20;99.90
66328;DHT22;53133;52.862;6.602;2023-07-13T16:08:55;21.10;99.90
66328;DHT22;53133;52.862;6.602;2023-07-13T16:11:26;21.10;99.90
66328;DHT22;53133;52.862;6.602;2023-07-13T16:13:53;21.00;99.90
66328;DHT22;53133;52.862;6.602;2023-07-13T16:16:26;21.00;99.90
66328;DHT22;53133;52.862;6.602;2023-07-13T16:18:55;21.00;99.90